sensor_id;sensor_type;location;lat;lon;timestamp;P1;durP1;ratioP1;P2;durP2;ratioP2
15643;SDS011;7921;43.586;1.408;2023-09-19T00:02:16;4.00;;;2.10;;
15643;SDS011;7921;43.586;1.408;2023-09-19T00:04:42;4.75;;;2.45;;
15643;SDS011;7921;43.586;1.408;2023-09-19T00:07:08;4.68;;;2.30;;
15643;SDS011;7921;43.586;1.408;2023-09-19T00:09:34;4.38;;;2.33;;
15643;SDS011;7921;43.586;1.408;2023-09-19T00:12:05;3.63;;;1.70;;
15643;SDS011;7921;43.586;1.408;2023-09-19T00:14:31;4.93;;;2.05;;
15643;SDS011;7921;43.586;1.408;2023-09-19T00:17:00;1.85;;;1.58;;
15643;SDS011;7921;43.586;1.408;2023-09-19T00:19:30;2.25;;;1.40;;
15643;SDS011;7921;43.586;1.408;2023-09-19T00:21:57;4.03;;;1.48;;
15643;SDS011;7921;43.586;1.408;2023-09-19T00:24:23;1.92;;;1.30;;
15643;SDS011;7921;43.586;1.408;2023-09-19T00:26:48;3.05;;;1.05;;
15643;SDS011;7921;43.586;1.408;2023-09-19T00:29:13;3.70;;;1.73;;
15643;SDS011;7921;43.586;1.408;2023-09-19T00:31:43;2.17;;;1.13;;
15643;SDS011;7921;43.586;1.408;2023-09-19T00:34:08;3.17;;;1.17;;
15643;SDS011;7921;43.586;1.408;2023-09-19T00:36:35;1.88;;;1.10;;
15643;SDS011;7921;43.586;1.408;2023-09-19T00:39:04;3.40;;;1.13;;
15643;SDS011;7921;43.586;1.408;2023-09-19T00:41:31;3.30;;;1.33;;
15643;SDS011;7921;43.586;1.408;2023-09-19T00:43:57;1.67;;;1.05;;
15643;SDS011;7921;43.586;1.408;2023-09-19T00:46:23;2.55;;;1.30;;
15643;SDS011;7921;43.586;1.408;2023-09-19T00:48:48;2.53;;;1.48;;
15643;SDS011;7921;43.586;1.408;2023-09-19T00:51:14;2.08;;;1.58;;
15643;SDS011;7921;43.586;1.408;2023-09-19T00:53:44;2.47;;;1.02;;
15643;SDS011;7921;43.586;1.408;2023-09-19T00:56:11;2.60;;;1.17;;
15643;SDS011;7921;43.586;1.408;2023-09-19T00:58:37;2.85;;;1.23;;
15643;SDS011;7921;43.586;1.408;2023-09-19T01:01:03;1.80;;;1.35;;
15643;SDS011;7921;43.586;1.408;2023-09-19T01:03:32;1.83;;;1.10;;
15643;SDS011;7921;43.586;1.408;2023-09-19T01:06:07;3.10;;;1.17;;
15643;SDS011;7921;43.586;1.408;2023-09-19T01:08:37;2.03;;;1.17;;
15643;SDS011;7921;43.586;1.408;2023-09-19T01:22:01;1.65;;;1.10;;
15643;SDS011;7921;43.586;1.408;2023-09-19T01:30:32;2.70;;;1.20;;
15643;SDS011;7921;43.586;1.408;2023-09-19T01:32:58;4.50;;;1.92;;
15643;SDS011;7921;43.586;1.408;2023-09-19T01:35:24;2.08;;;1.10;;
15643;SDS011;7921;43.586;1.408;2023-09-19T01:37:49;3.80;;;1.35;;
15643;SDS011;7921;43.586;1.408;2023-09-19T01:40:16;1.55;;;1.10;;
15643;SDS011;7921;43.586;1.408;2023-09-19T01:45:34;1.48;;;1.25;;
15643;SDS011;7921;43.586;1.408;2023-09-19T01:51:25;2.00;;;1.20;;
15643;SDS011;7921;43.586;1.408;2023-09-19T01:56:21;2.75;;;1.10;;
15643;SDS011;7921;43.586;1.408;2023-09-19T01:58:48;1.80;;;1.13;;
15643;SDS011;7921;43.586;1.408;2023-09-19T02:01:19;2.35;;;1.40;;
15643;SDS011;7921;43.586;1.408;2023-09-19T02:03:46;2.28;;;1.30;;
15643;SDS011;7921;43.586;1.408;2023-09-19T02:06:13;2.28;;;1.13;;
15643;SDS011;7921;43.586;1.408;2023-09-19T02:08:43;2.45;;;1.20;;
15643;SDS011;7921;43.586;1.408;2023-09-19T02:11:10;1.70;;;1.00;;
15643;SDS011;7921;43.586;1.408;2023-09-19T02:13:38;1.90;;;1.20;;
15643;SDS011;7921;43.586;1.408;2023-09-19T02:16:03;2.42;;;1.10;;
15643;SDS011;7921;43.586;1.408;2023-09-19T02:18:32;3.08;;;1.30;;
15643;SDS011;7921;43.586;1.408;2023-09-19T02:21:00;1.52;;;1.13;;
15643;SDS011;7921;43.586;1.408;2023-09-19T02:23:26;3.67;;;1.30;;
15643;SDS011;7921;43.586;1.408;2023-09-19T02:25:54;1.88;;;1.30;;
15643;SDS011;7921;43.586;1.408;2023-09-19T02:28:23;2.53;;;1.20;;
15643;SDS011;7921;43.586;1.408;2023-09-19T02:30:49;2.38;;;1.33;;
15643;SDS011;7921;43.586;1.408;2023-09-19T02:33:15;2.38;;;1.30;;
15643;SDS011;7921;43.586;1.408;2023-09-19T02:35:42;2.05;;;1.30;;
15643;SDS011;7921;43.586;1.408;2023-09-19T02:38:07;2.78;;;1.60;;
15643;SDS011;7921;43.586;1.408;2023-09-19T02:40:33;1.77;;;1.02;;
15643;SDS011;7921;43.586;1.408;2023-09-19T02:43:01;3.25;;;1.50;;
15643;SDS011;7921;43.586;1.408;2023-09-19T02:45:27;3.20;;;1.70;;
15643;SDS011;7921;43.586;1.408;2023-09-19T02:47:52;2.28;;;1.35;;
15643;SDS011;7921;43.586;1.408;2023-09-19T02:50:18;2.88;;;1.33;;
15643;SDS011;7921;43.586;1.408;2023-09-19T02:52:44;5.00;;;1.27;;
15643;SDS011;7921;43.586;1.408;2023-09-19T02:55:10;1.08;;;0.80;;
15643;SDS011;7921;43.586;1.408;2023-09-19T02:57:38;1.95;;;1.20;;
15643;SDS011;7921;43.586;1.408;2023-09-19T03:00:06;3.42;;;1.70;;
15643;SDS011;7921;43.586;1.408;2023-09-19T03:02:34;3.28;;;1.23;;
15643;SDS011;7921;43.586;1.408;2023-09-19T03:05:00;3.45;;;1.30;;
15643;SDS011;7921;43.586;1.408;2023-09-19T03:07:27;2.70;;;1.52;;
15643;SDS011;7921;43.586;1.408;2023-09-19T03:09:53;3.28;;;1.10;;
15643;SDS011;7921;43.586;1.408;2023-09-19T03:12:20;1.60;;;1.50;;
15643;SDS011;7921;43.586;1.408;2023-09-19T03:14:45;2.75;;;1.35;;
15643;SDS011;7921;43.586;1.408;2023-09-19T03:17:11;3.45;;;1.10;;
15643;SDS011;7921;43.586;1.408;2023-09-19T03:19:39;3.00;;;0.98;;
15643;SDS011;7921;43.586;1.408;2023-09-19T03:22:04;2.70;;;1.40;;
15643;SDS011;7921;43.586;1.408;2023-09-19T03:24:30;2.15;;;1.15;;
15643;SDS011;7921;43.586;1.408;2023-09-19T03:26:58;3.10;;;1.27;;
15643;SDS011;7921;43.586;1.408;2023-09-19T03:29:23;3.20;;;1.30;;
15643;SDS011;7921;43.586;1.408;2023-09-19T03:31:49;3.22;;;1.23;;
15643;SDS011;7921;43.586;1.408;2023-09-19T03:34:14;3.00;;;1.38;;
15643;SDS011;7921;43.586;1.408;2023-09-19T03:36:40;2.80;;;1.20;;
15643;SDS011;7921;43.586;1.408;2023-09-19T03:39:06;2.17;;;1.30;;
15643;SDS011;7921;43.586;1.408;2023-09-19T03:41:32;1.58;;;0.98;;
15643;SDS011;7921;43.586;1.408;2023-09-19T03:43:58;1.65;;;1.10;;
15643;SDS011;7921;43.586;1.408;2023-09-19T03:46:23;3.00;;;1.23;;
15643;SDS011;7921;43.586;1.408;2023-09-19T03:48:49;2.03;;;1.20;;
15643;SDS011;7921;43.586;1.408;2023-09-19T03:51:15;2.15;;;1.13;;
15643;SDS011;7921;43.586;1.408;2023-09-19T03:53:40;2.35;;;1.20;;
15643;SDS011;7921;43.586;1.408;2023-09-19T03:56:06;2.88;;;1.35;;
15643;SDS011;7921;43.586;1.408;2023-09-19T03:58:33;2.65;;;1.10;;
15643;SDS011;7921;43.586;1.408;2023-09-19T04:01:00;3.17;;;1.30;;
15643;SDS011;7921;43.586;1.408;2023-09-19T04:03:25;2.28;;;1.23;;
15643;SDS011;7921;43.586;1.408;2023-09-19T04:05:59;3.80;;;1.35;;
15643;SDS011;7921;43.586;1.408;2023-09-19T04:08:25;2.28;;;1.65;;
15643;SDS011;7921;43.586;1.408;2023-09-19T04:10:51;1.95;;;1.15;;
15643;SDS011;7921;43.586;1.408;2023-09-19T04:13:18;1.75;;;1.15;;
15643;SDS011;7921;43.586;1.408;2023-09-19T04:15:43;1.88;;;1.00;;
15643;SDS011;7921;43.586;1.408;2023-09-19T04:18:09;1.77;;;1.00;;
15643;SDS011;7921;43.586;1.408;2023-09-19T04:20:34;2.35;;;1.15;;
15643;SDS011;7921;43.586;1.408;2023-09-19T04:23:00;2.03;;;1.02;;
15643;SDS011;7921;43.586;1.408;2023-09-19T04:25:25;2.67;;;1.13;;
15643;SDS011;7921;43.586;1.408;2023-09-19T04:27:51;1.58;;;1.13;;
15643;SDS011;7921;43.586;1.408;2023-09-19T04:30:17;1.15;;;1.05;;
15643;SDS011;7921;43.586;1.408;2023-09-19T04:32:42;2.15;;;1.50;;
15643;SDS011;7921;43.586;1.408;2023-09-19T04:35:08;2.03;;;1.53;;
15643;SDS011;7921;43.586;1.408;2023-09-19T04:37:38;2.17;;;0.90;;
15643;SDS011;7921;43.586;1.408;2023-09-19T04:40:07;1.20;;;1.10;;
15643;SDS011;7921;43.586;1.408;2023-09-19T04:42:44;2.38;;;1.48;;
15643;SDS011;7921;43.586;1.408;2023-09-19T04:45:10;3.65;;;1.30;;
15643;SDS011;7921;43.586;1.408;2023-09-19T04:47:36;2.35;;;1.20;;
15643;SDS011;7921;43.586;1.408;2023-09-19T04:50:04;1.38;;;1.00;;
15643;SDS011;7921;43.586;1.408;2023-09-19T04:52:31;2.10;;;1.58;;
15643;SDS011;7921;43.586;1.408;2023-09-19T04:54:57;3.50;;;1.30;;
15643;SDS011;7921;43.586;1.408;2023-09-19T04:57:22;1.23;;;1.13;;
15643;SDS011;7921;43.586;1.408;2023-09-19T04:59:48;1.45;;;1.13;;
15643;SDS011;7921;43.586;1.408;2023-09-19T05:02:14;2.17;;;1.27;;
15643;SDS011;7921;43.586;1.408;2023-09-19T05:04:39;3.63;;;1.17;;
15643;SDS011;7921;43.586;1.408;2023-09-19T05:07:04;3.60;;;1.30;;
15643;SDS011;7921;43.586;1.408;2023-09-19T05:09:30;1.52;;;1.10;;
15643;SDS011;7921;43.586;1.408;2023-09-19T05:11:55;1.58;;;1.33;;
15643;SDS011;7921;43.586;1.408;2023-09-19T05:14:21;1.80;;;1.35;;
15643;SDS011;7921;43.586;1.408;2023-09-19T05:16:47;4.60;;;1.55;;
15643;SDS011;7921;43.586;1.408;2023-09-19T05:19:13;2.55;;;1.30;;
15643;SDS011;7921;43.586;1.408;2023-09-19T05:21:38;2.05;;;1.30;;
15643;SDS011;7921;43.586;1.408;2023-09-19T05:24:04;3.30;;;1.33;;
15643;SDS011;7921;43.586;1.408;2023-09-19T05:26:33;2.83;;;1.60;;
15643;SDS011;7921;43.586;1.408;2023-09-19T05:28:59;1.60;;;1.17;;
15643;SDS011;7921;43.586;1.408;2023-09-19T05:31:24;4.10;;;1.92;;
15643;SDS011;7921;43.586;1.408;2023-09-19T05:33:50;1.90;;;1.40;;
15643;SDS011;7921;43.586;1.408;2023-09-19T05:36:16;4.82;;;1.35;;
15643;SDS011;7921;43.586;1.408;2023-09-19T05:38:41;2.28;;;1.20;;
15643;SDS011;7921;43.586;1.408;2023-09-19T05:41:07;1.52;;;1.20;;
15643;SDS011;7921;43.586;1.408;2023-09-19T05:43:35;2.15;;;1.38;;
15643;SDS011;7921;43.586;1.408;2023-09-19T05:46:02;1.40;;;1.30;;
15643;SDS011;7921;43.586;1.408;2023-09-19T05:48:28;3.67;;;1.50;;
15643;SDS011;7921;43.586;1.408;2023-09-19T05:50:53;3.95;;;1.40;;
15643;SDS011;7921;43.586;1.408;2023-09-19T05:53:18;2.70;;;1.38;;
15643;SDS011;7921;43.586;1.408;2023-09-19T05:55:45;2.42;;;1.40;;
15643;SDS011;7921;43.586;1.408;2023-09-19T05:58:10;3.20;;;1.10;;
15643;SDS011;7921;43.586;1.408;2023-09-19T06:00:39;2.45;;;1.38;;
15643;SDS011;7921;43.586;1.408;2023-09-19T06:03:06;2.88;;;1.42;;
15643;SDS011;7921;43.586;1.408;2023-09-19T06:05:33;4.38;;;1.30;;
15643;SDS011;7921;43.586;1.408;2023-09-19T06:07:58;1.58;;;1.30;;
15643;SDS011;7921;43.586;1.408;2023-09-19T06:10:32;2.50;;;1.45;;
15643;SDS011;7921;43.586;1.408;2023-09-19T06:12:59;5.78;;;1.40;;
15643;SDS011;7921;43.586;1.408;2023-09-19T06:15:25;3.20;;;1.40;;
15643;SDS011;7921;43.586;1.408;2023-09-19T06:17:54;2.88;;;1.73;;
15643;SDS011;7921;43.586;1.408;2023-09-19T06:20:20;3.40;;;1.40;;
15643;SDS011;7921;43.586;1.408;2023-09-19T06:22:47;3.25;;;1.50;;
15643;SDS011;7921;43.586;1.408;2023-09-19T06:25:13;3.75;;;1.45;;
15643;SDS011;7921;43.586;1.408;2023-09-19T06:27:45;3.75;;;1.60;;
15643;SDS011;7921;43.586;1.408;2023-09-19T06:30:11;4.57;;;1.55;;
15643;SDS011;7921;43.586;1.408;2023-09-19T06:32:38;2.55;;;1.55;;
15643;SDS011;7921;43.586;1.408;2023-09-19T06:35:04;2.20;;;1.23;;
15643;SDS011;7921;43.586;1.408;2023-09-19T06:37:32;3.08;;;1.50;;
15643;SDS011;7921;43.586;1.408;2023-09-19T06:40:00;3.80;;;1.95;;
15643;SDS011;7921;43.586;1.408;2023-09-19T06:42:25;2.05;;;1.50;;
15643;SDS011;7921;43.586;1.408;2023-09-19T06:44:52;2.40;;;1.52;;
15643;SDS011;7921;43.586;1.408;2023-09-19T06:47:18;3.65;;;1.60;;
15643;SDS011;7921;43.586;1.408;2023-09-19T06:49:43;4.60;;;1.90;;
15643;SDS011;7921;43.586;1.408;2023-09-19T06:52:11;3.35;;;1.85;;
15643;SDS011;7921;43.586;1.408;2023-09-19T06:54:37;2.53;;;1.40;;
15643;SDS011;7921;43.586;1.408;2023-09-19T06:57:03;4.35;;;2.08;;
15643;SDS011;7921;43.586;1.408;2023-09-19T06:59:28;3.10;;;1.40;;
15643;SDS011;7921;43.586;1.408;2023-09-19T07:01:54;2.67;;;1.38;;
15643;SDS011;7921;43.586;1.408;2023-09-19T07:04:20;2.80;;;1.63;;
15643;SDS011;7921;43.586;1.408;2023-09-19T07:06:51;5.00;;;1.60;;
15643;SDS011;7921;43.586;1.408;2023-09-19T07:09:17;2.75;;;1.50;;
15643;SDS011;7921;43.586;1.408;2023-09-19T07:11:44;3.03;;;1.30;;
15643;SDS011;7921;43.586;1.408;2023-09-19T07:14:10;1.98;;;1.50;;
15643;SDS011;7921;43.586;1.408;2023-09-19T07:16:37;5.10;;;1.52;;
15643;SDS011;7921;43.586;1.408;2023-09-19T07:19:04;3.45;;;1.23;;
15643;SDS011;7921;43.586;1.408;2023-09-19T07:21:29;2.88;;;1.48;;
15643;SDS011;7921;43.586;1.408;2023-09-19T07:23:54;2.50;;;1.50;;
15643;SDS011;7921;43.586;1.408;2023-09-19T07:26:20;3.70;;;1.50;;
15643;SDS011;7921;43.586;1.408;2023-09-19T07:28:45;2.30;;;1.30;;
15643;SDS011;7921;43.586;1.408;2023-09-19T07:31:11;2.08;;;1.17;;
15643;SDS011;7921;43.586;1.408;2023-09-19T07:33:37;3.10;;;1.27;;
15643;SDS011;7921;43.586;1.408;2023-09-19T07:36:03;3.40;;;1.20;;
15643;SDS011;7921;43.586;1.408;2023-09-19T07:38:28;4.32;;;1.30;;
15643;SDS011;7921;43.586;1.408;2023-09-19T07:40:59;1.83;;;1.17;;
15643;SDS011;7921;43.586;1.408;2023-09-19T07:43:25;2.92;;;1.20;;
15643;SDS011;7921;43.586;1.408;2023-09-19T07:45:51;2.33;;;1.40;;
15643;SDS011;7921;43.586;1.408;2023-09-19T07:48:17;3.50;;;1.40;;
15643;SDS011;7921;43.586;1.408;2023-09-19T07:50:42;2.13;;;1.58;;
15643;SDS011;7921;43.586;1.408;2023-09-19T07:53:09;2.30;;;1.05;;
15643;SDS011;7921;43.586;1.408;2023-09-19T07:55:34;3.15;;;1.30;;
15643;SDS011;7921;43.586;1.408;2023-09-19T07:57:59;2.72;;;1.42;;
15643;SDS011;7921;43.586;1.408;2023-09-19T08:00:25;4.28;;;1.55;;
15643;SDS011;7921;43.586;1.408;2023-09-19T08:02:51;2.72;;;1.15;;
15643;SDS011;7921;43.586;1.408;2023-09-19T08:05:17;2.33;;;1.05;;
15643;SDS011;7921;43.586;1.408;2023-09-19T08:07:43;3.97;;;1.20;;
15643;SDS011;7921;43.586;1.408;2023-09-19T08:10:11;3.90;;;1.15;;
15643;SDS011;7921;43.586;1.408;2023-09-19T08:12:44;2.85;;;1.20;;
15643;SDS011;7921;43.586;1.408;2023-09-19T08:15:12;2.75;;;0.95;;
15643;SDS011;7921;43.586;1.408;2023-09-19T08:17:40;2.97;;;1.20;;
15643;SDS011;7921;43.586;1.408;2023-09-19T08:20:06;3.50;;;1.45;;
15643;SDS011;7921;43.586;1.408;2023-09-19T08:22:32;2.85;;;1.27;;
15643;SDS011;7921;43.586;1.408;2023-09-19T08:24:57;4.60;;;1.33;;
15643;SDS011;7921;43.586;1.408;2023-09-19T08:27:23;4.13;;;1.45;;
15643;SDS011;7921;43.586;1.408;2023-09-19T08:29:52;3.92;;;1.42;;
15643;SDS011;7921;43.586;1.408;2023-09-19T08:32:17;2.85;;;1.38;;
15643;SDS011;7921;43.586;1.408;2023-09-19T08:34:48;3.80;;;1.50;;
15643;SDS011;7921;43.586;1.408;2023-09-19T08:37:14;2.38;;;1.08;;
15643;SDS011;7921;43.586;1.408;2023-09-19T08:39:39;2.35;;;1.48;;
15643;SDS011;7921;43.586;1.408;2023-09-19T08:42:04;2.83;;;1.13;;
15643;SDS011;7921;43.586;1.408;2023-09-19T08:44:30;2.58;;;1.60;;
15643;SDS011;7921;43.586;1.408;2023-09-19T08:47:00;2.95;;;1.02;;
15643;SDS011;7921;43.586;1.408;2023-09-19T08:52:36;4.85;;;1.55;;
15643;SDS011;7921;43.586;1.408;2023-09-19T08:55:11;3.15;;;1.13;;
15643;SDS011;7921;43.586;1.408;2023-09-19T08:57:38;3.53;;;1.30;;
15643;SDS011;7921;43.586;1.408;2023-09-19T09:00:08;3.50;;;1.23;;
15643;SDS011;7921;43.586;1.408;2023-09-19T09:02:38;4.20;;;1.25;;
15643;SDS011;7921;43.586;1.408;2023-09-19T09:05:08;1.70;;;0.88;;
15643;SDS011;7921;43.586;1.408;2023-09-19T09:07:35;2.97;;;1.30;;
15643;SDS011;7921;43.586;1.408;2023-09-19T09:10:04;3.25;;;1.10;;
15643;SDS011;7921;43.586;1.408;2023-09-19T09:12:30;3.30;;;1.15;;
15643;SDS011;7921;43.586;1.408;2023-09-19T09:14:55;2.58;;;1.40;;
15643;SDS011;7921;43.586;1.408;2023-09-19T09:17:22;2.05;;;1.00;;
15643;SDS011;7921;43.586;1.408;2023-09-19T09:19:49;2.75;;;0.85;;
15643;SDS011;7921;43.586;1.408;2023-09-19T09:22:17;1.38;;;0.85;;
15643;SDS011;7921;43.586;1.408;2023-09-19T09:24:58;1.42;;;1.00;;
15643;SDS011;7921;43.586;1.408;2023-09-19T09:27:28;2.45;;;0.82;;
15643;SDS011;7921;43.586;1.408;2023-09-19T09:29:54;2.15;;;1.10;;
15643;SDS011;7921;43.586;1.408;2023-09-19T09:34:57;5.85;;;1.00;;
15643;SDS011;7921;43.586;1.408;2023-09-19T09:37:24;1.75;;;0.93;;
15643;SDS011;7921;43.586;1.408;2023-09-19T09:39:55;2.35;;;0.88;;
15643;SDS011;7921;43.586;1.408;2023-09-19T09:42:44;1.38;;;0.82;;
15643;SDS011;7921;43.586;1.408;2023-09-19T09:45:12;2.75;;;1.00;;
15643;SDS011;7921;43.586;1.408;2023-09-19T09:47:45;1.30;;;0.80;;
15643;SDS011;7921;43.586;1.408;2023-09-19T09:52:54;1.55;;;0.90;;
15643;SDS011;7921;43.586;1.408;2023-09-19T09:55:25;4.30;;;0.75;;
15643;SDS011;7921;43.586;1.408;2023-09-19T09:58:02;3.83;;;1.10;;
15643;SDS011;7921;43.586;1.408;2023-09-19T10:00:53;3.33;;;1.00;;
15643;SDS011;7921;43.586;1.408;2023-09-19T10:03:30;1.90;;;0.90;;
15643;SDS011;7921;43.586;1.408;2023-09-19T10:05:56;2.10;;;1.13;;
15643;SDS011;7921;43.586;1.408;2023-09-19T10:08:23;2.58;;;0.90;;
15643;SDS011;7921;43.586;1.408;2023-09-19T10:10:48;1.45;;;0.80;;
15643;SDS011;7921;43.586;1.408;2023-09-19T10:13:28;2.17;;;0.95;;
15643;SDS011;7921;43.586;1.408;2023-09-19T10:15:56;2.47;;;0.63;;
15643;SDS011;7921;43.586;1.408;2023-09-19T10:18:24;0.77;;;0.65;;
15643;SDS011;7921;43.586;1.408;2023-09-19T10:20:50;3.72;;;1.05;;
15643;SDS011;7921;43.586;1.408;2023-09-19T10:23:17;4.13;;;1.08;;
15643;SDS011;7921;43.586;1.408;2023-09-19T10:25:47;1.80;;;0.70;;
15643;SDS011;7921;43.586;1.408;2023-09-19T10:28:15;1.25;;;0.80;;
15643;SDS011;7921;43.586;1.408;2023-09-19T10:30:42;2.50;;;0.80;;
15643;SDS011;7921;43.586;1.408;2023-09-19T10:33:09;1.45;;;0.65;;
15643;SDS011;7921;43.586;1.408;2023-09-19T10:35:38;1.20;;;0.88;;
15643;SDS011;7921;43.586;1.408;2023-09-19T10:38:07;1.35;;;0.70;;
15643;SDS011;7921;43.586;1.408;2023-09-19T10:40:35;1.63;;;0.80;;
15643;SDS011;7921;43.586;1.408;2023-09-19T10:43:05;1.35;;;0.70;;
15643;SDS011;7921;43.586;1.408;2023-09-19T10:45:31;1.33;;;0.85;;
15643;SDS011;7921;43.586;1.408;2023-09-19T10:47:58;0.98;;;0.75;;
15643;SDS011;7921;43.586;1.408;2023-09-19T10:50:48;1.30;;;0.80;;
15643;SDS011;7921;43.586;1.408;2023-09-19T10:53:16;1.55;;;0.80;;
15643;SDS011;7921;43.586;1.408;2023-09-19T10:55:48;1.65;;;0.70;;
15643;SDS011;7921;43.586;1.408;2023-09-19T10:58:24;1.17;;;0.80;;
15643;SDS011;7921;43.586;1.408;2023-09-19T11:00:52;1.67;;;0.77;;
15643;SDS011;7921;43.586;1.408;2023-09-19T11:03:21;1.20;;;0.65;;
15643;SDS011;7921;43.586;1.408;2023-09-19T11:14:14;1.85;;;0.65;;
15643;SDS011;7921;43.586;1.408;2023-09-19T11:16:40;1.27;;;0.57;;
15643;SDS011;7921;43.586;1.408;2023-09-19T11:19:05;1.23;;;0.60;;
15643;SDS011;7921;43.586;1.408;2023-09-19T11:26:50;1.88;;;0.70;;
15643;SDS011;7921;43.586;1.408;2023-09-19T11:29:32;1.88;;;0.85;;
15643;SDS011;7921;43.586;1.408;2023-09-19T11:31:58;3.05;;;0.85;;
15643;SDS011;7921;43.586;1.408;2023-09-19T11:40:05;0.50;;;0.50;;
15643;SDS011;7921;43.586;1.408;2023-09-19T11:42:44;2.13;;;0.60;;
15643;SDS011;7921;43.586;1.408;2023-09-19T11:48:21;1.90;;;0.60;;
15643;SDS011;7921;43.586;1.408;2023-09-19T11:50:50;0.88;;;0.60;;
15643;SDS011;7921;43.586;1.408;2023-09-19T11:53:16;0.43;;;0.40;;
15643;SDS011;7921;43.586;1.408;2023-09-19T11:55:44;0.57;;;0.57;;
15643;SDS011;7921;43.586;1.408;2023-09-19T11:58:10;1.98;;;0.63;;
15643;SDS011;7921;43.586;1.408;2023-09-19T12:00:39;0.75;;;0.70;;
15643;SDS011;7921;43.586;1.408;2023-09-19T12:03:09;1.02;;;0.73;;
15643;SDS011;7921;43.586;1.408;2023-09-19T12:05:36;0.90;;;0.55;;
15643;SDS011;7921;43.586;1.408;2023-09-19T12:08:02;1.17;;;0.70;;
15643;SDS011;7921;43.586;1.408;2023-09-19T12:10:54;0.82;;;0.60;;
15643;SDS011;7921;43.586;1.408;2023-09-19T12:13:20;2.67;;;0.80;;
15643;SDS011;7921;43.586;1.408;2023-09-19T12:15:46;0.52;;;0.50;;
15643;SDS011;7921;43.586;1.408;2023-09-19T12:18:25;1.17;;;0.52;;
15643;SDS011;7921;43.586;1.408;2023-09-19T12:20:54;1.20;;;0.70;;
15643;SDS011;7921;43.586;1.408;2023-09-19T12:23:21;0.73;;;0.70;;
15643;SDS011;7921;43.586;1.408;2023-09-19T12:25:46;1.42;;;0.77;;
15643;SDS011;7921;43.586;1.408;2023-09-19T12:28:12;0.82;;;0.60;;
15643;SDS011;7921;43.586;1.408;2023-09-19T12:30:41;0.55;;;0.55;;
15643;SDS011;7921;43.586;1.408;2023-09-19T12:33:25;0.70;;;0.70;;
15643;SDS011;7921;43.586;1.408;2023-09-19T12:35:52;1.65;;;0.60;;
15643;SDS011;7921;43.586;1.408;2023-09-19T12:38:26;0.50;;;0.50;;
15643;SDS011;7921;43.586;1.408;2023-09-19T12:41:01;0.88;;;0.60;;
15643;SDS011;7921;43.586;1.408;2023-09-19T12:43:28;1.00;;;0.50;;
15643;SDS011;7921;43.586;1.408;2023-09-19T12:45:55;3.25;;;0.82;;
15643;SDS011;7921;43.586;1.408;2023-09-19T12:48:21;1.17;;;0.88;;
15643;SDS011;7921;43.586;1.408;2023-09-19T12:53:26;1.73;;;0.60;;
15643;SDS011;7921;43.586;1.408;2023-09-19T12:55:58;1.23;;;0.70;;
15643;SDS011;7921;43.586;1.408;2023-09-19T12:58:23;1.70;;;0.93;;
15643;SDS011;7921;43.586;1.408;2023-09-19T13:00:50;0.80;;;0.60;;
15643;SDS011;7921;43.586;1.408;2023-09-19T13:05:59;3.40;;;0.60;;
15643;SDS011;7921;43.586;1.408;2023-09-19T13:08:30;1.15;;;0.50;;
15643;SDS011;7921;43.586;1.408;2023-09-19T13:13:41;1.00;;;0.57;;
15643;SDS011;7921;43.586;1.408;2023-09-19T13:16:09;0.80;;;0.45;;
15643;SDS011;7921;43.586;1.408;2023-09-19T13:18:42;2.88;;;0.60;;
15643;SDS011;7921;43.586;1.408;2023-09-19T13:21:31;0.93;;;0.60;;
15643;SDS011;7921;43.586;1.408;2023-09-19T13:26:47;1.08;;;0.60;;
15643;SDS011;7921;43.586;1.408;2023-09-19T13:29:13;0.98;;;0.70;;
15643;SDS011;7921;43.586;1.408;2023-09-19T13:31:44;0.70;;;0.55;;
15643;SDS011;7921;43.586;1.408;2023-09-19T13:34:11;1.80;;;0.70;;
15643;SDS011;7921;43.586;1.408;2023-09-19T13:36:36;1.13;;;0.88;;
15643;SDS011;7921;43.586;1.408;2023-09-19T13:39:02;2.30;;;0.90;;
15643;SDS011;7921;43.586;1.408;2023-09-19T13:41:27;0.90;;;0.70;;
15643;SDS011;7921;43.586;1.408;2023-09-19T13:43:54;0.82;;;0.60;;
15643;SDS011;7921;43.586;1.408;2023-09-19T13:46:22;1.67;;;0.60;;
15643;SDS011;7921;43.586;1.408;2023-09-19T13:48:50;1.02;;;0.70;;
15643;SDS011;7921;43.586;1.408;2023-09-19T13:51:19;1.73;;;0.70;;
15643;SDS011;7921;43.586;1.408;2023-09-19T13:53:47;0.77;;;0.63;;
15643;SDS011;7921;43.586;1.408;2023-09-19T13:56:13;1.10;;;0.60;;
15643;SDS011;7921;43.586;1.408;2023-09-19T13:58:39;1.17;;;0.47;;
15643;SDS011;7921;43.586;1.408;2023-09-19T14:01:04;0.82;;;0.80;;
15643;SDS011;7921;43.586;1.408;2023-09-19T14:03:30;1.48;;;0.60;;
15643;SDS011;7921;43.586;1.408;2023-09-19T14:05:55;0.70;;;0.60;;
15643;SDS011;7921;43.586;1.408;2023-09-19T14:08:21;0.82;;;0.77;;
15643;SDS011;7921;43.586;1.408;2023-09-19T14:10:48;1.45;;;0.80;;
15643;SDS011;7921;43.586;1.408;2023-09-19T14:13:13;1.25;;;0.75;;
15643;SDS011;7921;43.586;1.408;2023-09-19T14:15:40;1.10;;;1.00;;
15643;SDS011;7921;43.586;1.408;2023-09-19T14:18:06;1.08;;;0.70;;
15643;SDS011;7921;43.586;1.408;2023-09-19T14:20:31;2.25;;;0.60;;
15643;SDS011;7921;43.586;1.408;2023-09-19T14:22:56;1.25;;;0.50;;
15643;SDS011;7921;43.586;1.408;2023-09-19T14:25:23;0.75;;;0.55;;
15643;SDS011;7921;43.586;1.408;2023-09-19T14:27:49;1.15;;;0.68;;
15643;SDS011;7921;43.586;1.408;2023-09-19T14:30:15;1.05;;;0.50;;
15643;SDS011;7921;43.586;1.408;2023-09-19T14:32:40;1.20;;;0.50;;
15643;SDS011;7921;43.586;1.408;2023-09-19T14:35:06;0.55;;;0.52;;
15643;SDS011;7921;43.586;1.408;2023-09-19T14:37:32;0.73;;;0.52;;
15643;SDS011;7921;43.586;1.408;2023-09-19T14:39:58;1.17;;;0.60;;
15643;SDS011;7921;43.586;1.408;2023-09-19T14:42:23;1.00;;;0.80;;
15643;SDS011;7921;43.586;1.408;2023-09-19T14:44:49;1.02;;;0.52;;
15643;SDS011;7921;43.586;1.408;2023-09-19T14:47:15;1.15;;;0.60;;
15643;SDS011;7921;43.586;1.408;2023-09-19T14:49:41;1.33;;;0.80;;
15643;SDS011;7921;43.586;1.408;2023-09-19T14:52:07;0.57;;;0.57;;
15643;SDS011;7921;43.586;1.408;2023-09-19T14:54:33;1.27;;;0.50;;
15643;SDS011;7921;43.586;1.408;2023-09-19T14:56:59;1.17;;;0.98;;
15643;SDS011;7921;43.586;1.408;2023-09-19T14:59:30;1.13;;;0.60;;
15643;SDS011;7921;43.586;1.408;2023-09-19T15:01:57;0.63;;;0.60;;
15643;SDS011;7921;43.586;1.408;2023-09-19T15:04:23;1.52;;;0.90;;
15643;SDS011;7921;43.586;1.408;2023-09-19T15:06:49;1.45;;;0.73;;
15643;SDS011;7921;43.586;1.408;2023-09-19T15:09:14;1.38;;;0.70;;
15643;SDS011;7921;43.586;1.408;2023-09-19T15:11:40;31.27;;;4.47;;
15643;SDS011;7921;43.586;1.408;2023-09-19T15:14:05;2.55;;;1.20;;
15643;SDS011;7921;43.586;1.408;2023-09-19T15:16:31;1.13;;;0.70;;
15643;SDS011;7921;43.586;1.408;2023-09-19T15:18:57;1.63;;;0.63;;
15643;SDS011;7921;43.586;1.408;2023-09-19T15:21:23;1.08;;;0.90;;
15643;SDS011;7921;43.586;1.408;2023-09-19T15:23:49;1.92;;;0.88;;
15643;SDS011;7921;43.586;1.408;2023-09-19T15:26:15;3.55;;;0.85;;
15643;SDS011;7921;43.586;1.408;2023-09-19T15:28:45;1.27;;;0.60;;
15643;SDS011;7921;43.586;1.408;2023-09-19T15:31:11;1.10;;;0.60;;
15643;SDS011;7921;43.586;1.408;2023-09-19T15:33:37;1.67;;;0.95;;
15643;SDS011;7921;43.586;1.408;2023-09-19T15:36:04;1.65;;;0.82;;
15643;SDS011;7921;43.586;1.408;2023-09-19T15:38:30;0.80;;;0.75;;
15643;SDS011;7921;43.586;1.408;2023-09-19T15:40:59;0.90;;;0.73;;
15643;SDS011;7921;43.586;1.408;2023-09-19T15:43:24;1.25;;;0.90;;
15643;SDS011;7921;43.586;1.408;2023-09-19T15:45:50;3.13;;;0.75;;
15643;SDS011;7921;43.586;1.408;2023-09-19T15:48:16;3.05;;;0.80;;
15643;SDS011;7921;43.586;1.408;2023-09-19T15:50:42;2.25;;;1.00;;
15643;SDS011;7921;43.586;1.408;2023-09-19T15:53:09;2.38;;;0.60;;
15643;SDS011;7921;43.586;1.408;2023-09-19T15:55:38;1.77;;;0.90;;
15643;SDS011;7921;43.586;1.408;2023-09-19T15:58:05;1.90;;;0.60;;
15643;SDS011;7921;43.586;1.408;2023-09-19T16:00:31;1.38;;;0.60;;
15643;SDS011;7921;43.586;1.408;2023-09-19T16:02:59;0.88;;;0.57;;
15643;SDS011;7921;43.586;1.408;2023-09-19T16:05:26;1.25;;;0.70;;
15643;SDS011;7921;43.586;1.408;2023-09-19T16:07:51;0.95;;;0.60;;
15643;SDS011;7921;43.586;1.408;2023-09-19T16:10:17;1.05;;;0.60;;